| time (UTC) | temp F | wind direction | speed knots | gust knots | rain 1hr in | rain 24hr in | rain mn in | humidity % | barometer mb |
| 20260902200303 | 74 | 66 | 0.0 | 1.7 | 0.00 | 0.00 | 0.00 | 63 | 1020.2 |
| 20260902190804 | 75 | 9 | 0.0 | 0.9 | 0.00 | 0.00 | 0.00 | 61 | 1019.6 |
| 20260902190303 | 76 | 10 | 0.9 | 5.2 | 0.00 | 0.00 | 0.00 | 60 | 1019.4 |
| 20260902180803 | 78 | 76 | 1.7 | 2.6 | 0.00 | 0.00 | 0.00 | 55 | 1018.2 |
| 20260902180303 | 79 | 59 | 1.7 | 5.2 | 0.00 | 0.00 | 0.00 | 55 | 1018.1 |
| 20260902170804 | 81 | 7 | 0.9 | 2.6 | 0.00 | 0.00 | 0.00 | 53 | 1017.5 |
| 20260902160802 | 85 | 247 | 5.2 | 8.7 | 0.00 | 0.00 | 0.00 | 46 | 1017.1 |
| 20260902150302 | 86 | 240 | 2.6 | 11.3 | 0.00 | 0.00 | 0.00 | 45 | 1017.4 |
| 20260902140302 | 87 | 254 | 5.2 | 11.3 | 0.00 | 0.00 | 0.00 | 45 | 1018.0 |
| 20260902130802 | 86 | 225 | 2.6 | 10.4 | 0.00 | 0.00 | 0.00 | 46 | 1018.6 |
| 20260902130302 | 85 | 251 | 1.7 | 8.7 | 0.00 | 0.00 | 0.00 | 47 | 1018.7 |
| 20260902120802 | 85 | 237 | 4.3 | 8.7 | 0.00 | 0.00 | 0.00 | 49 | 1019.4 |
| 20260902120303 | 85 | 244 | 2.6 | 8.7 | 0.00 | 0.00 | 0.00 | 51 | 1019.4 |
| 20260902110802 | 83 | 240 | 0.9 | 2.6 | 0.00 | 0.00 | 0.00 | 49 | 1019.9 |
| 20260902110303 | 83 | 223 | 1.7 | 5.2 | 0.00 | 0.00 | 0.00 | 50 | 1019.9 |
| 20260902100802 | 79 | 237 | 0.9 | 2.6 | 0.00 | 0.00 | 0.00 | 55 | 1021.0 |
| 20260902100302 | 79 | 192 | 1.7 | 2.6 | 0.00 | 0.00 | 0.00 | 55 | 1020.9 |
| 20260902090803 | 75 | 106 | 0.9 | 1.7 | 0.00 | 0.00 | 0.00 | 63 | 1021.6 |
| 20260902090302 | 75 | 182 | 0.9 | 2.6 | 0.00 | 0.00 | 0.00 | 66 | 1021.7 |
| 20260902080803 | 73 | 176 | 0.0 | 0.9 | 0.00 | 0.00 | 0.00 | 68 | 1021.6 |
| 20260902070803 | 71 | 219 | 0.9 | 1.7 | 0.00 | 0.00 | 0.00 | 75 | 1021.8 |
| 20260902070303 | 70 | 95 | 0.9 | 2.6 | 0.00 | 0.00 | 0.00 | 76 | 1021.7 |
| 20260902060803 | 67 | 185 | 0.9 | 0.9 | 0.00 | 0.00 | 0.00 | 81 | 1021.9 |
| 20260902060303 | 67 | 192 | 0.9 | 2.6 | 0.00 | 0.00 | 0.00 | 82 | 1021.7 |
| 20260902040803 | 67 | 54 | 0.9 | 2.6 | 0.00 | 0.00 | 0.00 | 80 | 1021.1 |
| 20260902040303 | 67 | 47 | 0.9 | 2.6 | 0.00 | 0.00 | 0.00 | 80 | 1021.1 |
| 20260902030802 | 67 | 96 | 0.9 | 2.6 | 0.00 | 0.00 | 0.00 | 81 | 1021.0 |
| 20260902030303 | 67 | 100 | 0.9 | 1.7 | 0.00 | 0.00 | 0.00 | 81 | 1021.1 |
| 20260902020803 | 68 | 48 | 0.9 | 0.9 | 0.00 | 0.00 | 0.00 | 78 | 1021.0 |
| 20260902020303 | 68 | 61 | 0.9 | 2.6 | 0.00 | 0.00 | 0.00 | 78 | 1021.1 |
| 20260902010303 | 68 | 78 | 0.0 | 0.9 | 0.00 | 0.00 | 0.00 | 80 | 1021.1 |
| 20260902000803 | 69 | 78 | 0.0 | 0.0 | 0.00 | 0.00 | 0.00 | 77 | 1021.1 |
| 20260902000304 | 68 | 78 | 0.0 | 1.7 | 0.00 | 0.00 | 0.00 | 79 | 1021.0 |
| 20260901230803 | 70 | 57 | 0.9 | 1.7 | 0.00 | 0.00 | 0.00 | 74 | 1021.1 |
| 20260901230304 | 70 | 52 | 0.0 | 1.7 | 0.00 | 0.00 | 0.00 | 75 | 1021.1 |
| 20260901220803 | 71 | 47 | 0.9 | 2.6 | 0.00 | 0.00 | 0.00 | 71 | 1021.2 |
| 20260901210804 | 72 | 63 | 0.0 | 1.7 | 0.00 | 0.00 | 0.00 | 70 | 1020.9 |
| 20260901210303 | 72 | 86 | 0.9 | 2.6 | 0.00 | 0.00 | 0.00 | 70 | 1020.8 |
| 20260901200804 | 74 | 18 | 0.9 | 1.7 | 0.00 | 0.00 | 0.00 | 66 | 1020.1 |